createdAt,value
2023-04-14T00:00:21.541Z,93570.00
2023-04-14T00:01:21.577Z,93570.00
2023-04-14T00:02:21.764Z,93570.00
2023-04-14T00:03:22.048Z,93568.00
2023-04-14T00:04:21.936Z,93572.00
2023-04-14T00:05:21.763Z,93566.00
2023-04-14T00:06:21.800Z,93568.00
2023-04-14T00:08:28.484Z,93570.00
2023-04-14T00:09:28.459Z,93570.00
2023-04-14T00:10:28.528Z,93572.00
2023-04-14T00:11:28.445Z,93574.00
2023-04-14T00:12:28.462Z,93576.00
2023-04-14T00:13:28.435Z,93578.00
2023-04-14T00:14:28.448Z,93576.00
2023-04-14T00:15:28.417Z,93578.00
2023-04-14T00:16:28.478Z,93579.00
2023-04-14T00:17:28.493Z,93581.00
2023-04-14T00:18:28.419Z,93581.00
2023-04-14T00:19:28.388Z,93581.00
2023-04-14T00:20:28.384Z,93583.00
2023-04-14T00:21:28.378Z,93581.00
2023-04-14T00:22:28.372Z,93578.00
2023-04-14T00:23:28.378Z,93574.00
2023-04-14T00:24:28.350Z,93574.00
2023-04-14T00:25:28.349Z,93572.00
2023-04-14T00:26:28.342Z,93572.00
2023-04-14T00:27:28.335Z,93570.00
2023-04-14T00:28:28.339Z,93574.00
2023-04-14T00:29:28.317Z,93576.00
2023-04-14T00:30:28.320Z,93578.00
2023-04-14T00:31:28.381Z,93572.00
2023-04-14T00:32:28.380Z,93574.00
2023-04-14T00:33:28.308Z,93572.00
2023-04-14T00:34:28.299Z,93568.00
2023-04-14T00:35:28.277Z,93570.00
2023-04-14T00:36:28.280Z,93570.00
2023-04-14T00:37:28.293Z,93568.00
2023-04-14T00:38:28.258Z,93568.00
2023-04-14T00:39:28.264Z,93568.00
2023-04-14T00:40:28.266Z,93570.00
2023-04-14T00:41:28.252Z,93566.00
2023-04-14T00:42:28.236Z,93568.00
2023-04-14T00:43:28.234Z,93566.00
2023-04-14T00:44:28.255Z,93564.00
2023-04-14T00:45:28.331Z,93564.00
2023-04-14T00:46:28.454Z,93564.00
2023-04-14T00:47:28.469Z,93564.00
2023-04-14T00:48:28.454Z,93562.00
2023-04-14T00:49:28.518Z,93564.00
2023-04-14T00:50:28.603Z,93564.00
2023-04-14T00:51:28.636Z,93564.00
2023-04-14T00:52:28.671Z,93564.00
2023-04-14T00:53:28.749Z,93564.00
2023-04-14T00:54:28.778Z,93564.00
2023-04-14T00:55:28.845Z,93562.00
2023-04-14T00:56:28.912Z,93562.00
2023-04-14T00:57:28.957Z,93558.00
2023-04-14T00:58:28.998Z,93560.00
2023-04-14T00:59:29.053Z,93560.00
2023-04-14T01:00:29.117Z,93560.00
2023-04-14T01:01:29.226Z,93560.00
2023-04-14T01:02:29.402Z,93558.00
2023-04-14T01:03:29.398Z,93560.00
2023-04-14T01:04:37.035Z,93560.00
2023-04-14T01:05:30.564Z,93558.00
2023-04-14T01:06:29.292Z,93558.00
2023-04-14T01:07:29.303Z,93558.00
2023-04-14T01:08:29.284Z,93556.00
2023-04-14T01:09:29.269Z,93554.00
2023-04-14T01:10:29.266Z,93554.00
2023-04-14T01:11:29.277Z,93554.00
2023-04-14T01:12:29.244Z,93554.00
2023-04-14T01:13:29.326Z,93554.00
2023-04-14T01:14:29.304Z,93556.00
2023-04-14T01:15:29.356Z,93556.00
2023-04-14T01:16:29.453Z,93556.00
2023-04-14T01:17:29.488Z,93560.00
2023-04-14T01:18:29.522Z,93560.00
2023-04-14T01:19:29.567Z,93558.00
2023-04-14T01:20:29.598Z,93558.00
2023-04-14T01:21:29.668Z,93560.00
2023-04-14T01:22:29.718Z,93560.00
2023-04-14T01:23:29.767Z,93560.00
2023-04-14T01:24:29.812Z,93562.00
2023-04-14T01:25:29.870Z,93562.00
2023-04-14T01:26:29.912Z,93564.00
2023-04-14T01:27:29.965Z,93564.00
2023-04-14T01:28:30.028Z,93566.00
2023-04-14T01:29:30.061Z,93568.00
2023-04-14T01:30:30.132Z,93568.00
2023-04-14T01:31:30.194Z,93570.00
2023-04-14T01:32:30.249Z,93568.00
2023-04-14T01:33:30.292Z,93566.00
2023-04-14T01:34:30.339Z,93566.00
2023-04-14T01:35:30.398Z,93564.00
2023-04-14T01:36:30.539Z,93564.00
2023-04-14T01:37:30.524Z,93562.00
2023-04-14T01:38:30.564Z,93562.00
2023-04-14T01:39:30.592Z,93560.00
2023-04-14T01:40:30.644Z,93558.00
2023-04-14T01:41:30.715Z,93556.00
2023-04-14T01:42:30.764Z,93554.00
2023-04-14T01:43:30.813Z,93548.00
2023-04-14T01:44:30.886Z,93548.00
2023-04-14T01:45:30.940Z,93546.00
2023-04-14T01:46:30.995Z,93542.00
2023-04-14T01:47:31.078Z,93540.00
2023-04-14T01:48:31.118Z,93534.00
2023-04-14T01:50:31.204Z,93531.00
2023-04-14T01:51:31.267Z,93529.00
2023-04-14T01:52:31.328Z,93525.00
2023-04-14T01:53:31.378Z,93523.00
2023-04-14T01:54:31.423Z,93521.00
2023-04-14T01:55:31.499Z,93517.00
2023-04-14T01:56:31.557Z,93517.00
2023-04-14T01:57:31.614Z,93511.00
2023-04-14T01:58:31.752Z,93507.00
2023-04-14T01:59:31.696Z,93507.00
2023-04-14T02:00:31.760Z,93501.00
2023-04-14T02:01:31.893Z,93499.00
2023-04-14T02:02:31.950Z,93499.00
2023-04-14T02:03:32.024Z,93497.00
2023-04-14T02:04:31.983Z,93497.00
2023-04-14T02:05:32.015Z,93497.00
2023-04-14T02:06:32.094Z,93499.00
2023-04-14T02:07:32.122Z,93495.00
2023-04-14T02:08:32.188Z,93497.00
2023-04-14T02:09:32.251Z,93499.00
2023-04-14T02:10:32.291Z,93497.00
2023-04-14T02:11:32.342Z,93497.00
2023-04-14T02:12:32.389Z,93497.00
2023-04-14T02:13:32.459Z,93499.00
2023-04-14T02:14:32.503Z,93501.00
2023-04-14T02:15:32.561Z,93501.00
2023-04-14T02:16:32.661Z,93505.00
2023-04-14T02:17:32.675Z,93505.00
2023-04-14T02:18:32.738Z,93507.00
2023-04-14T02:19:32.780Z,93505.00
2023-04-14T02:20:32.929Z,93509.00
2023-04-14T02:21:32.937Z,93505.00
2023-04-14T02:22:32.961Z,93507.00
2023-04-14T02:23:33.007Z,93503.00
2023-04-14T02:24:33.060Z,93501.00
2023-04-14T02:25:33.122Z,93503.00
2023-04-14T02:26:33.230Z,93501.00
2023-04-14T02:27:33.219Z,93503.00
2023-04-14T02:28:33.267Z,93503.00
2023-04-14T02:29:33.344Z,93499.00
2023-04-14T02:30:33.437Z,93499.00
2023-04-14T02:31:33.459Z,93495.00
2023-04-14T02:32:33.519Z,93493.00
2023-04-14T02:33:33.571Z,93487.00
2023-04-14T02:35:33.679Z,93485.00
2023-04-14T02:36:33.724Z,93484.00
2023-04-14T02:37:33.770Z,93487.00
2023-04-14T02:38:33.833Z,93487.00
2023-04-14T02:39:33.886Z,93491.00
2023-04-14T02:40:33.945Z,93491.00
2023-04-14T02:41:34.009Z,93493.00
2023-04-14T02:42:34.146Z,93497.00
2023-04-14T02:43:34.123Z,93499.00
2023-04-14T02:44:34.168Z,93501.00
2023-04-14T02:45:34.230Z,93503.00
2023-04-14T02:46:34.404Z,93509.00
2023-04-14T02:47:34.374Z,93513.00
2023-04-14T02:48:34.408Z,93517.00
2023-04-14T02:49:34.441Z,93517.00
2023-04-14T02:50:34.517Z,93519.00
2023-04-14T02:51:34.553Z,93521.00
2023-04-14T02:52:34.632Z,93521.00
2023-04-14T02:53:34.680Z,93521.00
2023-04-14T02:54:34.720Z,93521.00
2023-04-14T02:55:34.795Z,93517.00
2023-04-14T02:56:34.841Z,93519.00
2023-04-14T02:57:34.895Z,93519.00
2023-04-14T02:58:34.948Z,93515.00
2023-04-14T02:59:35.014Z,93511.00
2023-04-14T03:00:35.060Z,93511.00
2023-04-14T03:01:35.181Z,93509.00
2023-04-14T03:02:35.355Z,93513.00
2023-04-14T03:03:35.334Z,93509.00
2023-04-14T03:04:35.372Z,93509.00
2023-04-14T03:05:35.445Z,93511.00
2023-04-14T03:06:35.414Z,93509.00
2023-04-14T03:07:35.483Z,93509.00
2023-04-14T03:08:35.547Z,93509.00
2023-04-14T03:09:35.605Z,93513.00
2023-04-14T03:10:35.669Z,93513.00
2023-04-14T03:11:35.713Z,93511.00
2023-04-14T03:12:35.766Z,93513.00
2023-04-14T03:13:35.825Z,93513.00
2023-04-14T03:14:35.883Z,93515.00
2023-04-14T03:15:35.997Z,93513.00
2023-04-14T03:16:36.017Z,93511.00
2023-04-14T03:17:36.151Z,93511.00
2023-04-14T03:18:36.162Z,93511.00
2023-04-14T03:19:36.201Z,93509.00
2023-04-14T03:20:36.259Z,93509.00
2023-04-14T03:21:36.303Z,93509.00
2023-04-14T03:22:36.364Z,93507.00
2023-04-14T03:23:36.421Z,93505.00
2023-04-14T03:24:36.501Z,93507.00
2023-04-14T03:25:36.534Z,93509.00
2023-04-14T03:26:36.696Z,93507.00
2023-04-14T03:27:36.719Z,93505.00
2023-04-14T03:28:38.196Z,93505.00
2023-04-14T03:29:36.763Z,93505.00
2023-04-14T03:30:36.831Z,93501.00
2023-04-14T03:31:36.951Z,93501.00
2023-04-14T03:32:37.007Z,93501.00
2023-04-14T03:33:36.990Z,93501.00
2023-04-14T03:34:37.061Z,93503.00
2023-04-14T03:35:37.117Z,93501.00
2023-04-14T03:36:37.199Z,93505.00
2023-04-14T03:37:37.212Z,93503.00
2023-04-14T03:38:37.261Z,93501.00
2023-04-14T03:39:37.316Z,93505.00
2023-04-14T03:40:37.374Z,93507.00
2023-04-14T03:41:37.428Z,93507.00
2023-04-14T03:42:37.497Z,93509.00
2023-04-14T03:43:37.551Z,93509.00
2023-04-14T03:44:37.596Z,93509.00
2023-04-14T03:45:37.654Z,93513.00
2023-04-14T03:46:37.729Z,93515.00
2023-04-14T03:47:37.824Z,93517.00
2023-04-14T03:48:37.906Z,93517.00
2023-04-14T03:49:37.869Z,93519.00
2023-04-14T03:50:37.921Z,93517.00
2023-04-14T03:51:37.956Z,93519.00
2023-04-14T03:52:38.042Z,93521.00
2023-04-14T03:53:38.079Z,93525.00
2023-04-14T03:54:38.127Z,93517.00
2023-04-14T03:55:38.172Z,93517.00
2023-04-14T03:56:38.247Z,93515.00
2023-04-14T03:57:38.289Z,93515.00
2023-04-14T03:58:38.329Z,93515.00
2023-04-14T03:59:38.404Z,93515.00
2023-04-14T04:00:38.450Z,93513.00
2023-04-14T04:01:38.606Z,93513.00
2023-04-14T04:02:38.775Z,93511.00
2023-04-14T04:03:38.920Z,93511.00
2023-04-14T04:04:38.775Z,93509.00
2023-04-14T04:05:38.711Z,93511.00
2023-04-14T04:06:38.755Z,93509.00
2023-04-14T04:07:38.807Z,93509.00
2023-04-14T04:08:38.873Z,93509.00
2023-04-14T04:09:38.946Z,93509.00
2023-04-14T04:10:39.072Z,93509.00
2023-04-14T04:11:39.021Z,93511.00
2023-04-14T04:12:39.085Z,93511.00
2023-04-14T04:13:39.139Z,93511.00
2023-04-14T04:14:39.262Z,93511.00
2023-04-14T04:15:39.264Z,93513.00
2023-04-14T04:16:39.305Z,93513.00
2023-04-14T04:17:39.386Z,93515.00
2023-04-14T04:18:39.427Z,93517.00
2023-04-14T04:19:39.482Z,93517.00
2023-04-14T04:20:39.531Z,93519.00
2023-04-14T04:21:39.604Z,93521.00
2023-04-14T04:22:39.639Z,93521.00
2023-04-14T04:23:39.702Z,93521.00
2023-04-14T04:24:39.759Z,93521.00
2023-04-14T04:25:39.814Z,93523.00
2023-04-14T04:26:39.863Z,93523.00
2023-04-14T04:27:39.933Z,93525.00
2023-04-14T04:28:40.001Z,93525.00
2023-04-14T04:29:40.054Z,93527.00
2023-04-14T04:30:40.104Z,93531.00
2023-04-14T04:31:40.186Z,93531.00
2023-04-14T04:32:40.275Z,93532.00
2023-04-14T04:33:40.368Z,93534.00
2023-04-14T04:34:40.334Z,93536.00
2023-04-14T04:35:40.394Z,93536.00
2023-04-14T04:36:40.446Z,93536.00
2023-04-14T04:37:40.524Z,93536.00
2023-04-14T04:38:40.592Z,93540.00
2023-04-14T04:39:40.637Z,93540.00
2023-04-14T04:40:40.692Z,93540.00
2023-04-14T04:41:40.748Z,93540.00
2023-04-14T04:42:40.837Z,93542.00
2023-04-14T04:43:40.885Z,93542.00
2023-04-14T04:44:40.935Z,93542.00
2023-04-14T04:45:41.016Z,93548.00
2023-04-14T04:46:41.060Z,93548.00
2023-04-14T04:47:41.137Z,93556.00
2023-04-14T04:48:41.201Z,93550.00
2023-04-14T04:49:41.227Z,93550.00
2023-04-14T04:50:41.279Z,93548.00
2023-04-14T04:51:41.338Z,93550.00
2023-04-14T04:52:41.407Z,93552.00
2023-04-14T04:53:41.473Z,93556.00
2023-04-14T04:54:41.517Z,93556.00
2023-04-14T04:55:41.661Z,93554.00
2023-04-14T04:56:41.666Z,93556.00
2023-04-14T04:57:41.702Z,93558.00
2023-04-14T04:58:41.777Z,93558.00
2023-04-14T04:59:41.834Z,93556.00
2023-04-14T05:00:41.895Z,93560.00
2023-04-14T05:01:41.961Z,93556.00
2023-04-14T05:02:42.061Z,93554.00
2023-04-14T05:03:42.074Z,93556.00
2023-04-14T05:04:42.163Z,93554.00
2023-04-14T05:05:42.195Z,93552.00
2023-04-14T05:06:42.238Z,93552.00
2023-04-14T05:07:42.305Z,93550.00
2023-04-14T05:08:42.343Z,93552.00
2023-04-14T05:09:42.403Z,93550.00
2023-04-14T05:10:42.498Z,93552.00
2023-04-14T05:11:42.520Z,93550.00
2023-04-14T05:12:42.572Z,93546.00
2023-04-14T05:13:42.664Z,93544.00
2023-04-14T05:14:42.710Z,93542.00
2023-04-14T05:15:42.794Z,93544.00
2023-04-14T05:16:42.825Z,93542.00
2023-04-14T05:17:43.018Z,93542.00
2023-04-14T05:18:42.961Z,93544.00
2023-04-14T05:19:42.993Z,93542.00
2023-04-14T05:20:43.045Z,93540.00
2023-04-14T05:21:43.144Z,93538.00
2023-04-14T05:22:43.181Z,93542.00
2023-04-14T05:23:43.246Z,93538.00
2023-04-14T05:24:43.382Z,93542.00
2023-04-14T05:25:43.394Z,93544.00
2023-04-14T05:26:51.923Z,93538.00
2023-04-14T05:27:44.416Z,93540.00
2023-04-14T05:28:43.437Z,93536.00
2023-04-14T05:29:43.503Z,93536.00
2023-04-14T05:30:43.427Z,93532.00
2023-04-14T05:31:43.489Z,93534.00
2023-04-14T05:32:43.467Z,93538.00
2023-04-14T05:33:43.449Z,93540.00
2023-04-14T05:34:43.447Z,93536.00
2023-04-14T05:35:43.350Z,93542.00
2023-04-14T05:36:43.347Z,93544.00
2023-04-14T05:37:43.365Z,93546.00
2023-04-14T05:38:43.522Z,93546.00
2023-04-14T05:39:43.552Z,93548.00
2023-04-14T05:40:43.499Z,93546.00
2023-04-14T05:41:43.592Z,93548.00
2023-04-14T05:42:43.625Z,93550.00
2023-04-14T05:43:43.646Z,93552.00
2023-04-14T05:44:43.576Z,93554.00
2023-04-14T05:45:43.609Z,93554.00
2023-04-14T05:46:43.687Z,93556.00
2023-04-14T05:47:43.986Z,93556.00
2023-04-14T05:48:43.634Z,93556.00
2023-04-14T05:49:43.637Z,93564.00
2023-04-14T05:50:43.679Z,93570.00
2023-04-14T05:51:43.671Z,93568.00
2023-04-14T05:52:43.686Z,93570.00
2023-04-14T05:53:43.711Z,93570.00
2023-04-14T05:54:43.725Z,93570.00
2023-04-14T05:55:43.750Z,93568.00
2023-04-14T05:56:43.745Z,93572.00
2023-04-14T05:57:43.768Z,93568.00
2023-04-14T05:58:43.800Z,93572.00
2023-04-14T05:59:43.825Z,93568.00
2023-04-14T06:00:43.817Z,93568.00
2023-04-14T06:01:44.034Z,93570.00
2023-04-14T06:02:44.109Z,93572.00
2023-04-14T06:03:44.139Z,93576.00
2023-04-14T06:04:43.933Z,93576.00
2023-04-14T06:05:43.931Z,93576.00
2023-04-14T06:06:43.881Z,93578.00
2023-04-14T06:07:43.868Z,93579.00
2023-04-14T06:08:43.889Z,93578.00
2023-04-14T06:09:43.879Z,93578.00
2023-04-14T06:10:43.930Z,93578.00
2023-04-14T06:11:43.909Z,93574.00
2023-04-14T06:12:43.935Z,93574.00
2023-04-14T06:13:43.903Z,93576.00
2023-04-14T06:14:43.936Z,93574.00
2023-04-14T06:15:43.940Z,93572.00
2023-04-14T06:16:43.975Z,93570.00
2023-04-14T06:17:43.979Z,93570.00
2023-04-14T06:18:44.308Z,93576.00
2023-04-14T06:19:43.965Z,93576.00
2023-04-14T06:20:43.963Z,93572.00
2023-04-14T06:21:43.998Z,93574.00
2023-04-14T06:22:43.936Z,93570.00
2023-04-14T06:23:43.991Z,93572.00
2023-04-14T06:24:44.064Z,93570.00
2023-04-14T06:25:43.982Z,93574.00
2023-04-14T06:26:44.001Z,93572.00
2023-04-14T06:27:44.040Z,93572.00
2023-04-14T06:28:58.189Z,93576.00
2023-04-14T06:29:45.048Z,93574.00
2023-04-14T06:30:44.044Z,93576.00
2023-04-14T06:31:44.088Z,93572.00
2023-04-14T06:32:44.127Z,93576.00
2023-04-14T06:33:44.315Z,93578.00
2023-04-14T06:34:44.010Z,93576.00
2023-04-14T06:35:44.007Z,93572.00
2023-04-14T06:36:44.041Z,93570.00
2023-04-14T06:37:44.026Z,93572.00
2023-04-14T06:38:44.086Z,93578.00
2023-04-14T06:39:44.130Z,93576.00
2023-04-14T06:40:44.156Z,93574.00
2023-04-14T06:41:44.317Z,93576.00
2023-04-14T06:42:44.289Z,93574.00
2023-04-14T06:43:44.296Z,93572.00
2023-04-14T06:44:44.333Z,93566.00
2023-04-14T06:45:44.387Z,93566.00
2023-04-14T06:46:44.490Z,93568.00
2023-04-14T06:47:44.511Z,93564.00
2023-04-14T06:48:44.457Z,93562.00
2023-04-14T06:49:44.811Z,93564.00
2023-04-14T06:50:44.822Z,93562.00
2023-04-14T06:51:44.549Z,93558.00
2023-04-14T06:52:44.593Z,93560.00
2023-04-14T06:53:44.568Z,93562.00
2023-04-14T06:54:44.573Z,93562.00
2023-04-14T06:55:44.572Z,93564.00
2023-04-14T06:56:44.605Z,93562.00
2023-04-14T06:57:44.589Z,93562.00
2023-04-14T06:58:44.641Z,93562.00
2023-04-14T06:59:44.818Z,93560.00
2023-04-14T07:00:44.583Z,93562.00
2023-04-14T07:01:44.674Z,93560.00
2023-04-14T07:02:44.652Z,93568.00
2023-04-14T07:03:44.554Z,93566.00
2023-04-14T07:04:44.847Z,93566.00
2023-04-14T07:05:44.558Z,93568.00
2023-04-14T07:06:44.567Z,93570.00
2023-04-14T07:07:44.600Z,93564.00
2023-04-14T07:08:44.709Z,93566.00
2023-04-14T07:09:44.662Z,93570.00
2023-04-14T07:10:44.647Z,93570.00
2023-04-14T07:11:44.610Z,93568.00
2023-04-14T07:12:44.609Z,93564.00
2023-04-14T07:13:44.804Z,93566.00
2023-04-14T07:14:44.627Z,93566.00
2023-04-14T07:15:44.658Z,93566.00
2023-04-14T07:16:44.656Z,93566.00
2023-04-14T07:17:44.719Z,93564.00
2023-04-14T07:18:44.687Z,93564.00
2023-04-14T07:19:44.831Z,93560.00
2023-04-14T07:20:44.723Z,93560.00
2023-04-14T07:21:44.788Z,93564.00
2023-04-14T07:22:44.778Z,93566.00
2023-04-14T07:23:44.792Z,93566.00
2023-04-14T07:24:45.315Z,93568.00
2023-04-14T07:25:44.867Z,93568.00
2023-04-14T07:26:44.901Z,93568.00
2023-04-14T07:27:56.286Z,93568.00
2023-04-14T07:28:45.926Z,93570.00
2023-04-14T07:29:45.313Z,93570.00
2023-04-14T07:30:44.988Z,93568.00
2023-04-14T07:31:45.013Z,93574.00
2023-04-14T07:32:44.945Z,93574.00
2023-04-14T07:33:44.886Z,93576.00
2023-04-14T07:34:44.857Z,93581.00
2023-04-14T07:35:54.786Z,93583.00
2023-04-14T07:36:45.862Z,93583.00
2023-04-14T07:37:44.861Z,93583.00
2023-04-14T07:38:44.854Z,93589.00
2023-04-14T07:39:45.319Z,93587.00
2023-04-14T07:40:44.832Z,93591.00
2023-04-14T07:41:44.832Z,93591.00
2023-04-14T07:42:44.823Z,93593.00
2023-04-14T07:43:44.825Z,93593.00
2023-04-14T07:44:44.802Z,93591.00
2023-04-14T07:45:44.833Z,93589.00
2023-04-14T07:46:45.065Z,93595.00
2023-04-14T07:47:44.961Z,93597.00
2023-04-14T07:48:44.996Z,93597.00
2023-04-14T07:49:45.078Z,93599.00
2023-04-14T07:50:45.141Z,93599.00
2023-04-14T07:51:45.194Z,93599.00
2023-04-14T07:52:45.335Z,93597.00
2023-04-14T07:53:45.319Z,93597.00
2023-04-14T07:54:45.832Z,93599.00
2023-04-14T07:55:45.421Z,93599.00
2023-04-14T07:56:45.476Z,93601.00
2023-04-14T07:57:45.530Z,93603.00
2023-04-14T07:58:45.568Z,93603.00
2023-04-14T07:59:45.625Z,93599.00
2023-04-14T08:00:45.658Z,93599.00
2023-04-14T08:01:45.849Z,93603.00
2023-04-14T08:02:45.950Z,93607.00
2023-04-14T08:03:46.094Z,93607.00
2023-04-14T08:04:45.860Z,93609.00
2023-04-14T08:05:46.040Z,93609.00
2023-04-14T08:06:45.921Z,93609.00
2023-04-14T08:07:45.974Z,93617.00
2023-04-14T08:08:46.003Z,93617.00
2023-04-14T08:09:46.120Z,93607.00
2023-04-14T08:10:46.116Z,93609.00
2023-04-14T08:11:46.129Z,93617.00
2023-04-14T08:12:46.192Z,93619.00
2023-04-14T08:13:46.215Z,93619.00
2023-04-14T08:14:46.266Z,93619.00
2023-04-14T08:15:46.481Z,93619.00
2023-04-14T08:16:46.426Z,93624.00
2023-04-14T08:17:46.397Z,93624.00
2023-04-14T08:18:46.408Z,93623.00
2023-04-14T08:19:46.424Z,93626.00
2023-04-14T08:20:46.487Z,93623.00
2023-04-14T08:21:46.835Z,93619.00
2023-04-14T08:22:46.520Z,93621.00
2023-04-14T08:23:46.565Z,93619.00
2023-04-14T08:24:46.619Z,93621.00
2023-04-14T08:25:46.660Z,93623.00
2023-04-14T08:26:46.678Z,93624.00
2023-04-14T08:27:46.729Z,93626.00
2023-04-14T08:28:46.728Z,93623.00
2023-04-14T08:29:46.777Z,93624.00
2023-04-14T08:30:46.775Z,93626.00
2023-04-14T08:31:46.815Z,93626.00
2023-04-14T08:32:46.847Z,93628.00
2023-04-14T08:33:46.867Z,93630.00
2023-04-14T08:35:38.043Z,93634.00
2023-04-14T08:35:56.068Z,93634.00
2023-04-14T08:36:47.878Z,93640.00
2023-04-14T08:37:46.937Z,93642.00
2023-04-14T08:38:46.870Z,93642.00
2023-04-14T08:39:46.842Z,93644.00
2023-04-14T08:40:46.836Z,93642.00
2023-04-14T08:41:46.822Z,93644.00
2023-04-14T08:42:46.838Z,93636.00
2023-04-14T08:43:46.856Z,93638.00
2023-04-14T08:44:46.803Z,93640.00
2023-04-14T08:45:46.956Z,93640.00
2023-04-14T08:46:46.819Z,93642.00
2023-04-14T08:47:46.864Z,93642.00
2023-04-14T08:48:46.830Z,93640.00
2023-04-14T08:49:46.895Z,93638.00
2023-04-14T08:50:46.793Z,93636.00
2023-04-14T08:51:46.785Z,93638.00
2023-04-14T08:52:46.770Z,93634.00
2023-04-14T08:53:46.755Z,93632.00
2023-04-14T08:54:46.867Z,93632.00
2023-04-14T08:55:46.742Z,93630.00
2023-04-14T08:56:46.793Z,93632.00
2023-04-14T08:57:46.721Z,93634.00
2023-04-14T08:58:46.723Z,93630.00
2023-04-14T08:59:46.784Z,93634.00
2023-04-14T09:00:46.737Z,93632.00
2023-04-14T09:01:46.840Z,93634.00
2023-04-14T09:02:46.859Z,93630.00
2023-04-14T09:03:46.928Z,93630.00
2023-04-14T09:04:46.863Z,93634.00
2023-04-14T09:05:46.889Z,93634.00
2023-04-14T09:06:46.666Z,93632.00
2023-04-14T09:07:46.654Z,93630.00
2023-04-14T09:08:46.635Z,93628.00
2023-04-14T09:09:46.634Z,93626.00
2023-04-14T09:10:46.860Z,93630.00
2023-04-14T09:11:46.866Z,93626.00
2023-04-14T09:12:46.608Z,93632.00
2023-04-14T09:13:46.611Z,93624.00
2023-04-14T09:14:46.660Z,93626.00
2023-04-14T09:15:46.594Z,93626.00
2023-04-14T09:16:46.941Z,93626.00
2023-04-14T09:17:46.600Z,93628.00
2023-04-14T09:18:47.547Z,93628.00
2023-04-14T09:20:36.682Z,93628.00
2023-04-14T09:20:47.710Z,93626.00
2023-04-14T09:21:54.008Z,93628.00
2023-04-14T09:22:47.707Z,93630.00
2023-04-14T09:23:46.702Z,93630.00
2023-04-14T09:24:46.697Z,93628.00
2023-04-14T09:25:46.686Z,93632.00
2023-04-14T09:26:46.686Z,93632.00
2023-04-14T09:27:46.686Z,93632.00
2023-04-14T09:28:46.650Z,93634.00
2023-04-14T09:29:46.670Z,93640.00
2023-04-14T09:30:46.862Z,93636.00
2023-04-14T09:31:46.867Z,93646.00
2023-04-14T09:32:46.668Z,93644.00
2023-04-14T09:33:46.668Z,93644.00
2023-04-14T09:34:46.632Z,93642.00
2023-04-14T09:35:46.630Z,93644.00
2023-04-14T09:36:46.614Z,93642.00
2023-04-14T09:37:46.603Z,93640.00
2023-04-14T09:38:46.600Z,93642.00
2023-04-14T09:39:46.605Z,93642.00
2023-04-14T09:40:46.878Z,93642.00
2023-04-14T09:41:46.567Z,93642.00
2023-04-14T09:42:46.576Z,93644.00
2023-04-14T09:43:46.668Z,93646.00
2023-04-14T09:44:46.557Z,93640.00
2023-04-14T09:45:46.558Z,93648.00
2023-04-14T09:46:46.647Z,93646.00
2023-04-14T09:47:46.535Z,93648.00
2023-04-14T09:48:46.529Z,93646.00
2023-04-14T09:49:46.512Z,93648.00
2023-04-14T09:50:46.507Z,93648.00
2023-04-14T09:51:46.517Z,93650.00
2023-04-14T09:52:46.895Z,93652.00
2023-04-14T09:53:48.548Z,93652.00
2023-04-14T09:54:46.491Z,93652.00
2023-04-14T09:55:46.502Z,93652.00
2023-04-14T09:56:46.461Z,93652.00
2023-04-14T09:57:46.464Z,93656.00
2023-04-14T09:58:46.462Z,93654.00
2023-04-14T09:59:46.453Z,93650.00
2023-04-14T10:00:46.881Z,93652.00
2023-04-14T10:01:46.461Z,93650.00
2023-04-14T10:02:46.513Z,93652.00
2023-04-14T10:03:46.475Z,93652.00
2023-04-14T10:04:46.501Z,93644.00
2023-04-14T10:05:46.410Z,93650.00
2023-04-14T10:06:46.398Z,93650.00
2023-04-14T10:07:46.427Z,93650.00
2023-04-14T10:08:46.408Z,93648.00
2023-04-14T10:09:46.376Z,93648.00
2023-04-14T10:10:46.383Z,93648.00
2023-04-14T10:11:46.362Z,93646.00
2023-04-14T10:12:46.391Z,93648.00
2023-04-14T10:13:46.358Z,93646.00
2023-04-14T10:14:46.336Z,93644.00
2023-04-14T10:15:46.351Z,93644.00
2023-04-14T10:16:46.321Z,93640.00
2023-04-14T10:17:46.343Z,93638.00
2023-04-14T10:18:46.321Z,93632.00
2023-04-14T10:19:46.320Z,93634.00
2023-04-14T10:20:46.394Z,93634.00
2023-04-14T10:21:46.309Z,93632.00
2023-04-14T10:22:46.306Z,93632.00
2023-04-14T10:23:46.296Z,93630.00
2023-04-14T10:24:46.269Z,93632.00
2023-04-14T10:25:46.274Z,93630.00
2023-04-14T10:26:46.252Z,93626.00
2023-04-14T10:27:46.254Z,93628.00
2023-04-14T10:28:46.276Z,93624.00
2023-04-14T10:29:46.312Z,93624.00
2023-04-14T10:30:46.341Z,93626.00
2023-04-14T10:31:46.410Z,93621.00
2023-04-14T10:32:46.449Z,93617.00
2023-04-14T10:33:46.463Z,93619.00
2023-04-14T10:34:46.480Z,93609.00
2023-04-14T10:35:46.549Z,93607.00
2023-04-14T10:36:46.582Z,93617.00
2023-04-14T10:37:46.620Z,93619.00
2023-04-14T10:38:46.685Z,93619.00
2023-04-14T10:39:46.734Z,93617.00
2023-04-14T10:40:46.775Z,93619.00
2023-04-14T10:41:46.845Z,93617.00
2023-04-14T10:42:46.877Z,93621.00
2023-04-14T10:43:46.924Z,93609.00
2023-04-14T10:44:46.965Z,93619.00
2023-04-14T10:45:47.257Z,93617.00
2023-04-14T10:46:47.129Z,93609.00
2023-04-14T10:47:47.180Z,93617.00
2023-04-14T10:48:47.181Z,93617.00
2023-04-14T10:49:47.208Z,93621.00
2023-04-14T10:50:47.284Z,93619.00
2023-04-14T10:51:49.218Z,93621.00
2023-04-14T10:52:47.457Z,93619.00
2023-04-14T10:53:47.519Z,93609.00
2023-04-14T10:54:47.550Z,93609.00
2023-04-14T10:55:52.295Z,93607.00
2023-04-14T10:56:48.601Z,93603.00
2023-04-14T10:57:47.617Z,93601.00
2023-04-14T10:58:47.597Z,93599.00
2023-04-14T10:59:47.661Z,93597.00
2023-04-14T11:00:47.655Z,93595.00
2023-04-14T11:01:47.655Z,93595.00
2023-04-14T11:02:47.705Z,93593.00
2023-04-14T11:03:47.740Z,93591.00
2023-04-14T11:04:47.544Z,93587.00
2023-04-14T11:05:47.936Z,93583.00
2023-04-14T11:06:47.678Z,93578.00
2023-04-14T11:07:47.744Z,93581.00
2023-04-14T11:08:47.780Z,93579.00
2023-04-14T11:09:47.825Z,93581.00
2023-04-14T11:10:47.916Z,93581.00
2023-04-14T11:11:47.959Z,93583.00
2023-04-14T11:12:48.403Z,93583.00
2023-04-14T11:13:48.059Z,93583.00
2023-04-14T11:14:48.132Z,93579.00
2023-04-14T11:15:48.189Z,93576.00
2023-04-14T11:17:02.574Z,93574.00
2023-04-14T11:17:49.624Z,93579.00
2023-04-14T11:18:48.213Z,93579.00
2023-04-14T11:19:48.244Z,93578.00
2023-04-14T11:20:48.182Z,93581.00
2023-04-14T11:21:48.414Z,93576.00
2023-04-14T11:22:48.186Z,93578.00
2023-04-14T11:23:48.183Z,93574.00
2023-04-14T11:24:48.168Z,93570.00
2023-04-14T11:25:48.158Z,93566.00
2023-04-14T11:26:48.413Z,93570.00
2023-04-14T11:27:48.146Z,93570.00
2023-04-14T11:28:48.140Z,93566.00
2023-04-14T11:29:48.125Z,93568.00
2023-04-14T11:30:48.114Z,93560.00
2023-04-14T11:31:48.164Z,93566.00
2023-04-14T11:32:48.139Z,93564.00
2023-04-14T11:33:48.098Z,93564.00
2023-04-14T11:34:48.109Z,93566.00
2023-04-14T11:35:48.099Z,93564.00
2023-04-14T11:36:48.168Z,93568.00
2023-04-14T11:37:48.180Z,93566.00
2023-04-14T11:38:48.225Z,93566.00
2023-04-14T11:39:48.286Z,93566.00
2023-04-14T11:40:48.374Z,93570.00
2023-04-14T11:41:48.435Z,93568.00
2023-04-14T11:42:48.476Z,93564.00
2023-04-14T11:43:48.521Z,93564.00
2023-04-14T11:44:48.592Z,93554.00
2023-04-14T11:45:48.719Z,93554.00
2023-04-14T11:46:48.715Z,93554.00
2023-04-14T11:47:48.829Z,93554.00